Lowell, Arizona
Current Conditions -  °F | °C
As of 11:56 PM on Saturday 22 Nov 2014 (Local Time) from KDUG Reporting Station
Clear Clear  
Wind Chill: 32°   Ceiling: Unl
Heat Index: 38°   Visibility: 10mi
Dew Point: 22°   Wind: 8mph
Humidity: 53%   Direction: 50°NE
Pressure: 30.04"   Gusts: NA
Location:  31.4799°N, 109.96°W
Report Text: KDUG 230656Z AUTO 05007KT 10SM CLR 03/M06 A3004 RMK AO2 SLP144 T00331056 401891033
Loading
Personal Weather Stations






























Interactive Weather Map New forecast layout! Learn more

10-Day Weather Forecast

Advertisements
Track Severe Weather on mobile